sensor_id;sensor_type;location;lat;lon;timestamp;temperature;humidity
70830;SHT30;58451;51.550;7.208;2023-06-01T00:00:51;14.84;67.57
70830;SHT30;58451;51.550;7.208;2023-06-01T00:02:27;14.78;67.45
70830;SHT30;58451;51.550;7.208;2023-06-01T00:03:59;14.76;67.68
70830;SHT30;58451;51.550;7.208;2023-06-01T00:05:32;14.71;68.00
70830;SHT30;58451;51.550;7.208;2023-06-01T00:07:03;14.67;68.05
70830;SHT30;58451;51.550;7.208;2023-06-01T00:08:36;14.63;68.13
70830;SHT30;58451;51.550;7.208;2023-06-01T00:10:08;14.58;68.28
70830;SHT30;58451;51.550;7.208;2023-06-01T00:11:41;14.56;68.70
70830;SHT30;58451;51.550;7.208;2023-06-01T00:13:12;14.52;68.67
70830;SHT30;58451;51.550;7.208;2023-06-01T00:14:44;14.46;69.00
70830;SHT30;58451;51.550;7.208;2023-06-01T00:16:16;14.43;68.88
70830;SHT30;58451;51.550;7.208;2023-06-01T00:17:49;14.39;68.90
70830;SHT30;58451;51.550;7.208;2023-06-01T00:19:23;14.35;69.12
70830;SHT30;58451;51.550;7.208;2023-06-01T00:20:57;14.31;69.37
70830;SHT30;58451;51.550;7.208;2023-06-01T00:22:32;14.27;69.38
70830;SHT30;58451;51.550;7.208;2023-06-01T00:24:06;14.24;69.85
70830;SHT30;58451;51.550;7.208;2023-06-01T00:25:38;14.19;69.60
70830;SHT30;58451;51.550;7.208;2023-06-01T00:27:10;14.16;69.88
70830;SHT30;58451;51.550;7.208;2023-06-01T00:28:42;14.12;69.65
70830;SHT30;58451;51.550;7.208;2023-06-01T00:30:14;14.08;70.03
70830;SHT30;58451;51.550;7.208;2023-06-01T00:31:46;14.05;69.75
70830;SHT30;58451;51.550;7.208;2023-06-01T00:33:18;14.01;69.65
70830;SHT30;58451;51.550;7.208;2023-06-01T00:34:53;13.98;69.88
70830;SHT30;58451;51.550;7.208;2023-06-01T00:36:25;13.94;70.10
70830;SHT30;58451;51.550;7.208;2023-06-01T00:37:57;13.90;70.18
70830;SHT30;58451;51.550;7.208;2023-06-01T00:39:28;13.87;70.30
70830;SHT30;58451;51.550;7.208;2023-06-01T00:41:01;13.83;70.32
70830;SHT30;58451;51.550;7.208;2023-06-01T00:42:33;13.78;70.53
70830;SHT30;58451;51.550;7.208;2023-06-01T00:44:05;13.77;70.55
70830;SHT30;58451;51.550;7.208;2023-06-01T00:45:37;13.72;70.53
70830;SHT30;58451;51.550;7.208;2023-06-01T00:47:09;13.69;70.67
70830;SHT30;58451;51.550;7.208;2023-06-01T00:48:41;13.64;70.83
70830;SHT30;58451;51.550;7.208;2023-06-01T00:50:13;13.61;71.30
70830;SHT30;58451;51.550;7.208;2023-06-01T00:51:45;13.57;71.65
70830;SHT30;58451;51.550;7.208;2023-06-01T00:53:18;13.52;71.78
70830;SHT30;58451;51.550;7.208;2023-06-01T00:54:51;13.49;71.67
70830;SHT30;58451;51.550;7.208;2023-06-01T00:56:23;13.45;71.72
70830;SHT30;58451;51.550;7.208;2023-06-01T00:57:55;13.43;71.60
70830;SHT30;58451;51.550;7.208;2023-06-01T00:59:27;13.39;71.60
70830;SHT30;58451;51.550;7.208;2023-06-01T01:01:00;13.36;71.65
70830;SHT30;58451;51.550;7.208;2023-06-01T01:02:33;13.33;71.67
70830;SHT30;58451;51.550;7.208;2023-06-01T01:04:08;13.29;71.52
70830;SHT30;58451;51.550;7.208;2023-06-01T01:05:42;13.25;71.60
70830;SHT30;58451;51.550;7.208;2023-06-01T01:07:15;13.23;71.78
70830;SHT30;58451;51.550;7.208;2023-06-01T01:11:21;13.12;72.08
70830;SHT30;58451;51.550;7.208;2023-06-01T01:13:03;13.09;71.98
70830;SHT30;58451;51.550;7.208;2023-06-01T01:14:48;13.06;72.32
70830;SHT30;58451;51.550;7.208;2023-06-01T01:16:31;13.03;72.45
70830;SHT30;58451;51.550;7.208;2023-06-01T01:18:26;12.98;72.15
70830;SHT30;58451;51.550;7.208;2023-06-01T01:20:08;12.96;72.17
70830;SHT30;58451;51.550;7.208;2023-06-01T01:21:57;12.93;72.15
70830;SHT30;58451;51.550;7.208;2023-06-01T01:26:24;12.85;72.28
70830;SHT30;58451;51.550;7.208;2023-06-01T01:30:22;12.78;72.50
70830;SHT30;58451;51.550;7.208;2023-06-01T01:32:00;12.77;72.25
70830;SHT30;58451;51.550;7.208;2023-06-01T01:33:35;12.73;72.25
70830;SHT30;58451;51.550;7.208;2023-06-01T01:35:09;12.72;72.32
70830;SHT30;58451;51.550;7.208;2023-06-01T01:36:43;12.70;72.28
70830;SHT30;58451;51.550;7.208;2023-06-01T01:38:15;12.67;72.65
70830;SHT30;58451;51.550;7.208;2023-06-01T01:39:47;12.64;72.52
70830;SHT30;58451;51.550;7.208;2023-06-01T01:41:19;12.63;72.48
70830;SHT30;58451;51.550;7.208;2023-06-01T01:42:53;12.60;72.63
70830;SHT30;58451;51.550;7.208;2023-06-01T01:44:26;12.57;72.62
70830;SHT30;58451;51.550;7.208;2023-06-01T01:46:03;12.54;73.23
70830;SHT30;58451;51.550;7.208;2023-06-01T01:48:32;12.50;73.05
70830;SHT30;58451;51.550;7.208;2023-06-01T01:50:04;12.46;72.97
70830;SHT30;58451;51.550;7.208;2023-06-01T01:53:31;12.40;73.13
70830;SHT30;58451;51.550;7.208;2023-06-01T01:55:07;12.37;73.90
70830;SHT30;58451;51.550;7.208;2023-06-01T01:56:41;12.33;74.10
70830;SHT30;58451;51.550;7.208;2023-06-01T01:58:15;12.30;73.88
70830;SHT30;58451;51.550;7.208;2023-06-01T01:59:47;12.28;73.88
70830;SHT30;58451;51.550;7.208;2023-06-01T02:01:22;12.26;74.05
70830;SHT30;58451;51.550;7.208;2023-06-01T02:02:55;12.21;74.30
70830;SHT30;58451;51.550;7.208;2023-06-01T02:04:26;12.18;74.40
70830;SHT30;58451;51.550;7.208;2023-06-01T02:05:58;12.15;74.63
70830;SHT30;58451;51.550;7.208;2023-06-01T02:07:30;12.12;74.48
70830;SHT30;58451;51.550;7.208;2023-06-01T02:09:05;12.10;74.87
70830;SHT30;58451;51.550;7.208;2023-06-01T02:10:38;12.07;74.72
70830;SHT30;58451;51.550;7.208;2023-06-01T02:12:12;12.03;74.98
70830;SHT30;58451;51.550;7.208;2023-06-01T02:13:44;11.99;74.75
70830;SHT30;58451;51.550;7.208;2023-06-01T02:15:16;11.97;74.88
70830;SHT30;58451;51.550;7.208;2023-06-01T02:16:47;11.94;74.98
70830;SHT30;58451;51.550;7.208;2023-06-01T02:18:19;11.92;74.88
70830;SHT30;58451;51.550;7.208;2023-06-01T02:19:51;11.89;74.95
70830;SHT30;58451;51.550;7.208;2023-06-01T02:21:24;11.86;75.02
70830;SHT30;58451;51.550;7.208;2023-06-01T02:22:57;11.83;75.47
70830;SHT30;58451;51.550;7.208;2023-06-01T02:24:29;11.79;76.02
70830;SHT30;58451;51.550;7.208;2023-06-01T02:26:01;11.75;75.80
70830;SHT30;58451;51.550;7.208;2023-06-01T02:27:33;11.70;75.95
70830;SHT30;58451;51.550;7.208;2023-06-01T02:29:06;11.66;76.08
70830;SHT30;58451;51.550;7.208;2023-06-01T02:30:38;11.62;75.82
70830;SHT30;58451;51.550;7.208;2023-06-01T02:32:10;11.59;75.87
70830;SHT30;58451;51.550;7.208;2023-06-01T02:33:41;11.56;75.72
70830;SHT30;58451;51.550;7.208;2023-06-01T02:35:14;11.55;76.47
70830;SHT30;58451;51.550;7.208;2023-06-01T02:36:46;11.51;76.52
70830;SHT30;58451;51.550;7.208;2023-06-01T02:38:21;11.49;76.58
70830;SHT30;58451;51.550;7.208;2023-06-01T02:39:53;11.47;76.88
70830;SHT30;58451;51.550;7.208;2023-06-01T02:41:25;11.45;76.98
70830;SHT30;58451;51.550;7.208;2023-06-01T02:42:57;11.41;77.12
70830;SHT30;58451;51.550;7.208;2023-06-01T02:44:29;11.40;77.10
70830;SHT30;58451;51.550;7.208;2023-06-01T02:46:01;11.39;77.15
70830;SHT30;58451;51.550;7.208;2023-06-01T02:47:33;11.38;77.20
70830;SHT30;58451;51.550;7.208;2023-06-01T02:49:05;11.36;77.33
70830;SHT30;58451;51.550;7.208;2023-06-01T02:50:37;11.35;77.28
70830;SHT30;58451;51.550;7.208;2023-06-01T02:52:09;11.35;77.20
70830;SHT30;58451;51.550;7.208;2023-06-01T02:53:41;11.35;77.38
70830;SHT30;58451;51.550;7.208;2023-06-01T02:55:15;11.31;77.45
70830;SHT30;58451;51.550;7.208;2023-06-01T02:57:10;11.30;77.18
70830;SHT30;58451;51.550;7.208;2023-06-01T02:58:47;11.30;77.55
70830;SHT30;58451;51.550;7.208;2023-06-01T03:00:27;11.27;77.23
70830;SHT30;58451;51.550;7.208;2023-06-01T03:01:59;11.27;77.30
70830;SHT30;58451;51.550;7.208;2023-06-01T03:03:31;11.28;77.33
70830;SHT30;58451;51.550;7.208;2023-06-01T03:05:03;11.28;77.28
70830;SHT30;58451;51.550;7.208;2023-06-01T03:06:37;11.28;77.05
70830;SHT30;58451;51.550;7.208;2023-06-01T03:08:23;11.31;76.90
70830;SHT30;58451;51.550;7.208;2023-06-01T03:09:58;11.34;76.95
70830;SHT30;58451;51.550;7.208;2023-06-01T03:11:48;11.35;76.93
70830;SHT30;58451;51.550;7.208;2023-06-01T03:13:20;11.34;76.85
70830;SHT30;58451;51.550;7.208;2023-06-01T03:14:52;11.32;76.85
70830;SHT30;58451;51.550;7.208;2023-06-01T03:16:24;11.30;76.70
70830;SHT30;58451;51.550;7.208;2023-06-01T03:18:07;11.31;76.77
70830;SHT30;58451;51.550;7.208;2023-06-01T03:19:40;11.30;76.82
70830;SHT30;58451;51.550;7.208;2023-06-01T03:21:27;11.27;76.78
70830;SHT30;58451;51.550;7.208;2023-06-01T03:23:01;11.24;76.62
70830;SHT30;58451;51.550;7.208;2023-06-01T03:24:33;11.23;76.57
70830;SHT30;58451;51.550;7.208;2023-06-01T03:26:06;11.21;76.52
70830;SHT30;58451;51.550;7.208;2023-06-01T03:27:38;11.15;76.52
70830;SHT30;58451;51.550;7.208;2023-06-01T03:29:12;11.13;76.38
70830;SHT30;58451;51.550;7.208;2023-06-01T03:30:44;11.10;76.40
70830;SHT30;58451;51.550;7.208;2023-06-01T03:32:18;11.07;76.30
70830;SHT30;58451;51.550;7.208;2023-06-01T03:33:49;11.06;76.18
70830;SHT30;58451;51.550;7.208;2023-06-01T03:35:22;11.07;76.12
70830;SHT30;58451;51.550;7.208;2023-06-01T03:36:53;11.08;76.13
70830;SHT30;58451;51.550;7.208;2023-06-01T03:38:25;11.07;75.98
70830;SHT30;58451;51.550;7.208;2023-06-01T03:39:57;11.07;76.07
70830;SHT30;58451;51.550;7.208;2023-06-01T03:41:31;11.10;75.92
70830;SHT30;58451;51.550;7.208;2023-06-01T03:43:03;11.12;75.92
70830;SHT30;58451;51.550;7.208;2023-06-01T03:44:36;11.11;75.72
70830;SHT30;58451;51.550;7.208;2023-06-01T03:46:08;11.12;75.63
70830;SHT30;58451;51.550;7.208;2023-06-01T03:47:40;11.12;75.65
70830;SHT30;58451;51.550;7.208;2023-06-01T03:49:12;11.13;75.47
70830;SHT30;58451;51.550;7.208;2023-06-01T03:50:44;11.14;75.33
70830;SHT30;58451;51.550;7.208;2023-06-01T03:52:17;11.14;75.23
70830;SHT30;58451;51.550;7.208;2023-06-01T03:53:49;11.11;75.20
70830;SHT30;58451;51.550;7.208;2023-06-01T03:55:21;11.09;75.08
70830;SHT30;58451;51.550;7.208;2023-06-01T03:57:07;11.09;75.07
70830;SHT30;58451;51.550;7.208;2023-06-01T03:58:39;11.07;75.02
70830;SHT30;58451;51.550;7.208;2023-06-01T04:00:11;11.05;75.05
70830;SHT30;58451;51.550;7.208;2023-06-01T04:01:55;11.02;74.95
70830;SHT30;58451;51.550;7.208;2023-06-01T04:03:27;10.98;75.23
70830;SHT30;58451;51.550;7.208;2023-06-01T04:04:59;10.98;75.05
70830;SHT30;58451;51.550;7.208;2023-06-01T04:06:32;10.95;74.97
70830;SHT30;58451;51.550;7.208;2023-06-01T04:08:07;10.96;74.90
70830;SHT30;58451;51.550;7.208;2023-06-01T04:09:40;10.94;74.90
70830;SHT30;58451;51.550;7.208;2023-06-01T04:11:12;10.92;74.85
70830;SHT30;58451;51.550;7.208;2023-06-01T04:12:46;10.91;74.90
70830;SHT30;58451;51.550;7.208;2023-06-01T04:14:21;10.90;74.87
70830;SHT30;58451;51.550;7.208;2023-06-01T04:15:53;10.91;74.90
70830;SHT30;58451;51.550;7.208;2023-06-01T04:17:25;10.92;74.83
70830;SHT30;58451;51.550;7.208;2023-06-01T04:18:57;10.95;74.82
70830;SHT30;58451;51.550;7.208;2023-06-01T04:20:32;10.98;74.73
70830;SHT30;58451;51.550;7.208;2023-06-01T04:22:06;11.01;74.80
70830;SHT30;58451;51.550;7.208;2023-06-01T04:23:38;11.06;74.83
70830;SHT30;58451;51.550;7.208;2023-06-01T04:25:10;11.06;74.88
70830;SHT30;58451;51.550;7.208;2023-06-01T04:26:49;11.05;74.78
70830;SHT30;58451;51.550;7.208;2023-06-01T04:28:21;11.05;74.80
70830;SHT30;58451;51.550;7.208;2023-06-01T04:29:56;11.06;74.72
70830;SHT30;58451;51.550;7.208;2023-06-01T04:31:30;11.05;74.62
70830;SHT30;58451;51.550;7.208;2023-06-01T04:33:04;11.05;74.65
70830;SHT30;58451;51.550;7.208;2023-06-01T04:34:38;11.07;74.57
70830;SHT30;58451;51.550;7.208;2023-06-01T04:36:11;11.15;74.52
70830;SHT30;58451;51.550;7.208;2023-06-01T04:37:45;11.14;74.35
70830;SHT30;58451;51.550;7.208;2023-06-01T04:39:17;11.15;74.37
70830;SHT30;58451;51.550;7.208;2023-06-01T04:40:49;11.18;74.27
70830;SHT30;58451;51.550;7.208;2023-06-01T04:42:25;11.16;74.30
70830;SHT30;58451;51.550;7.208;2023-06-01T04:43:57;11.16;74.22
70830;SHT30;58451;51.550;7.208;2023-06-01T04:45:29;11.19;74.22
70830;SHT30;58451;51.550;7.208;2023-06-01T04:47:09;11.23;74.27
70830;SHT30;58451;51.550;7.208;2023-06-01T04:48:41;11.23;74.17
70830;SHT30;58451;51.550;7.208;2023-06-01T04:50:16;11.26;74.10
70830;SHT30;58451;51.550;7.208;2023-06-01T04:51:48;11.30;74.07
70830;SHT30;58451;51.550;7.208;2023-06-01T04:53:23;11.31;74.00
70830;SHT30;58451;51.550;7.208;2023-06-01T04:54:55;11.33;73.92
70830;SHT30;58451;51.550;7.208;2023-06-01T04:56:26;11.36;73.93
70830;SHT30;58451;51.550;7.208;2023-06-01T04:57:58;11.38;73.85
70830;SHT30;58451;51.550;7.208;2023-06-01T04:59:30;11.39;73.75
70830;SHT30;58451;51.550;7.208;2023-06-01T05:01:02;11.41;73.70
70830;SHT30;58451;51.550;7.208;2023-06-01T05:02:34;11.46;73.62
70830;SHT30;58451;51.550;7.208;2023-06-01T05:04:06;11.52;73.57
70830;SHT30;58451;51.550;7.208;2023-06-01T05:05:38;11.57;73.43
70830;SHT30;58451;51.550;7.208;2023-06-01T05:07:12;11.65;73.42
70830;SHT30;58451;51.550;7.208;2023-06-01T05:08:43;11.76;73.32
70830;SHT30;58451;51.550;7.208;2023-06-01T05:10:15;11.84;73.10
70830;SHT30;58451;51.550;7.208;2023-06-01T05:11:49;11.89;72.83
70830;SHT30;58451;51.550;7.208;2023-06-01T05:13:21;11.91;72.62
70830;SHT30;58451;51.550;7.208;2023-06-01T05:14:53;11.90;72.52
70830;SHT30;58451;51.550;7.208;2023-06-01T05:16:24;11.90;72.57
70830;SHT30;58451;51.550;7.208;2023-06-01T05:19:52;11.99;72.52
70830;SHT30;58451;51.550;7.208;2023-06-01T05:21:24;12.06;72.42
70830;SHT30;58451;51.550;7.208;2023-06-01T05:22:56;12.10;72.10
70830;SHT30;58451;51.550;7.208;2023-06-01T05:24:29;12.11;72.03
70830;SHT30;58451;51.550;7.208;2023-06-01T05:26:01;12.13;71.93
70830;SHT30;58451;51.550;7.208;2023-06-01T05:27:38;12.13;71.88
70830;SHT30;58451;51.550;7.208;2023-06-01T05:29:10;12.17;71.72
70830;SHT30;58451;51.550;7.208;2023-06-01T05:30:42;12.15;71.60
70830;SHT30;58451;51.550;7.208;2023-06-01T05:32:14;12.16;71.70
70830;SHT30;58451;51.550;7.208;2023-06-01T05:33:48;12.19;71.52
70830;SHT30;58451;51.550;7.208;2023-06-01T05:35:20;12.19;71.53
70830;SHT30;58451;51.550;7.208;2023-06-01T05:36:53;12.24;71.60
70830;SHT30;58451;51.550;7.208;2023-06-01T05:38:25;12.30;71.37
70830;SHT30;58451;51.550;7.208;2023-06-01T05:39:57;12.33;71.40
70830;SHT30;58451;51.550;7.208;2023-06-01T05:41:29;12.37;71.33
70830;SHT30;58451;51.550;7.208;2023-06-01T05:43:01;12.42;71.30
70830;SHT30;58451;51.550;7.208;2023-06-01T05:44:33;12.49;71.22
70830;SHT30;58451;51.550;7.208;2023-06-01T05:46:05;12.56;71.12
70830;SHT30;58451;51.550;7.208;2023-06-01T05:47:38;12.66;70.98
70830;SHT30;58451;51.550;7.208;2023-06-01T05:49:10;12.75;70.55
70830;SHT30;58451;51.550;7.208;2023-06-01T05:50:42;12.76;70.30
70830;SHT30;58451;51.550;7.208;2023-06-01T05:52:14;12.79;70.40
70830;SHT30;58451;51.550;7.208;2023-06-01T05:53:46;12.87;70.18
70830;SHT30;58451;51.550;7.208;2023-06-01T05:55:18;12.95;70.07
70830;SHT30;58451;51.550;7.208;2023-06-01T05:56:50;13.05;69.90
70830;SHT30;58451;51.550;7.208;2023-06-01T05:58:23;13.09;69.42
70830;SHT30;58451;51.550;7.208;2023-06-01T05:59:55;13.13;69.33
70830;SHT30;58451;51.550;7.208;2023-06-01T06:01:27;13.18;69.08
70830;SHT30;58451;51.550;7.208;2023-06-01T06:02:58;13.21;68.82
70830;SHT30;58451;51.550;7.208;2023-06-01T06:04:30;13.27;68.98
70830;SHT30;58451;51.550;7.208;2023-06-01T06:06:02;13.37;69.00
70830;SHT30;58451;51.550;7.208;2023-06-01T06:07:35;13.49;68.78
70830;SHT30;58451;51.550;7.208;2023-06-01T06:09:07;13.57;68.37
70830;SHT30;58451;51.550;7.208;2023-06-01T06:10:39;13.64;67.98
70830;SHT30;58451;51.550;7.208;2023-06-01T06:12:10;13.68;68.02
70830;SHT30;58451;51.550;7.208;2023-06-01T06:13:42;13.77;67.82
70830;SHT30;58451;51.550;7.208;2023-06-01T06:15:14;13.80;67.50
70830;SHT30;58451;51.550;7.208;2023-06-01T06:16:46;13.86;67.52
70830;SHT30;58451;51.550;7.208;2023-06-01T06:18:18;13.91;66.75
70830;SHT30;58451;51.550;7.208;2023-06-01T06:19:50;13.89;66.53
70830;SHT30;58451;51.550;7.208;2023-06-01T06:21:22;13.93;66.57
70830;SHT30;58451;51.550;7.208;2023-06-01T06:22:55;13.96;66.25
70830;SHT30;58451;51.550;7.208;2023-06-01T06:24:26;13.96;66.22
70830;SHT30;58451;51.550;7.208;2023-06-01T06:25:58;13.99;66.45
70830;SHT30;58451;51.550;7.208;2023-06-01T06:27:30;14.03;66.45
70830;SHT30;58451;51.550;7.208;2023-06-01T06:29:02;14.09;66.42
70830;SHT30;58451;51.550;7.208;2023-06-01T06:30:34;14.19;66.13
70830;SHT30;58451;51.550;7.208;2023-06-01T06:32:06;14.23;65.20
70830;SHT30;58451;51.550;7.208;2023-06-01T06:33:38;14.26;65.48
70830;SHT30;58451;51.550;7.208;2023-06-01T06:35:10;14.35;65.00
70830;SHT30;58451;51.550;7.208;2023-06-01T06:36:44;14.35;64.48
70830;SHT30;58451;51.550;7.208;2023-06-01T06:38:18;14.33;64.77
70830;SHT30;58451;51.550;7.208;2023-06-01T06:39:49;14.41;64.75
70830;SHT30;58451;51.550;7.208;2023-06-01T06:41:21;14.54;64.82
70830;SHT30;58451;51.550;7.208;2023-06-01T06:42:54;14.62;64.12
70830;SHT30;58451;51.550;7.208;2023-06-01T06:44:26;14.60;64.15
70830;SHT30;58451;51.550;7.208;2023-06-01T06:45:58;14.68;63.58
70830;SHT30;58451;51.550;7.208;2023-06-01T06:47:30;14.66;63.15
70830;SHT30;58451;51.550;7.208;2023-06-01T06:49:02;14.64;63.12
70830;SHT30;58451;51.550;7.208;2023-06-01T06:50:34;14.62;63.23
70830;SHT30;58451;51.550;7.208;2023-06-01T06:52:08;14.72;63.37
70830;SHT30;58451;51.550;7.208;2023-06-01T06:53:40;14.82;63.18
70830;SHT30;58451;51.550;7.208;2023-06-01T06:55:12;14.95;63.02
70830;SHT30;58451;51.550;7.208;2023-06-01T06:56:44;15.06;62.35
70830;SHT30;58451;51.550;7.208;2023-06-01T06:58:16;15.22;62.15
70830;SHT30;58451;51.550;7.208;2023-06-01T06:59:48;15.39;61.72
70830;SHT30;58451;51.550;7.208;2023-06-01T07:01:19;15.44;60.97
70830;SHT30;58451;51.550;7.208;2023-06-01T07:02:52;15.48;61.37
70830;SHT30;58451;51.550;7.208;2023-06-01T07:04:27;15.56;61.10
70830;SHT30;58451;51.550;7.208;2023-06-01T07:06:00;15.56;59.98
70830;SHT30;58451;51.550;7.208;2023-06-01T07:07:32;15.47;60.27
70830;SHT30;58451;51.550;7.208;2023-06-01T07:09:04;15.49;60.50
70830;SHT30;58451;51.550;7.208;2023-06-01T07:10:37;15.54;60.35
70830;SHT30;58451;51.550;7.208;2023-06-01T07:12:09;15.55;60.20
70830;SHT30;58451;51.550;7.208;2023-06-01T07:13:41;15.57;60.42
70830;SHT30;58451;51.550;7.208;2023-06-01T07:15:13;15.67;60.07
70830;SHT30;58451;51.550;7.208;2023-06-01T07:16:44;15.81;60.03
70830;SHT30;58451;51.550;7.208;2023-06-01T07:18:17;15.89;59.28
70830;SHT30;58451;51.550;7.208;2023-06-01T07:19:49;15.90;59.00
70830;SHT30;58451;51.550;7.208;2023-06-01T07:21:21;15.91;58.92
70830;SHT30;58451;51.550;7.208;2023-06-01T07:22:53;15.96;59.27
70830;SHT30;58451;51.550;7.208;2023-06-01T07:24:25;16.06;59.08
70830;SHT30;58451;51.550;7.208;2023-06-01T07:25:57;16.17;58.78
70830;SHT30;58451;51.550;7.208;2023-06-01T07:27:29;16.32;58.33
70830;SHT30;58451;51.550;7.208;2023-06-01T07:29:01;16.40;57.97
70830;SHT30;58451;51.550;7.208;2023-06-01T07:30:33;16.52;57.98
70830;SHT30;58451;51.550;7.208;2023-06-01T07:32:06;16.67;57.55
70830;SHT30;58451;51.550;7.208;2023-06-01T07:33:38;16.75;57.70
70830;SHT30;58451;51.550;7.208;2023-06-01T07:35:10;16.78;57.45
70830;SHT30;58451;51.550;7.208;2023-06-01T07:36:42;16.83;56.58
70830;SHT30;58451;51.550;7.208;2023-06-01T07:38:16;16.80;56.75
70830;SHT30;58451;51.550;7.208;2023-06-01T07:39:48;16.83;57.00
70830;SHT30;58451;51.550;7.208;2023-06-01T07:41:20;16.86;56.73
70830;SHT30;58451;51.550;7.208;2023-06-01T07:42:52;16.92;56.58
70830;SHT30;58451;51.550;7.208;2023-06-01T07:44:24;16.98;56.65
70830;SHT30;58451;51.550;7.208;2023-06-01T07:45:56;17.08;56.62
70830;SHT30;58451;51.550;7.208;2023-06-01T07:47:28;17.21;55.67
70830;SHT30;58451;51.550;7.208;2023-06-01T07:49:01;17.26;55.30
70830;SHT30;58451;51.550;7.208;2023-06-01T07:50:34;17.29;54.63
70830;SHT30;58451;51.550;7.208;2023-06-01T07:52:07;17.40;55.70
70830;SHT30;58451;51.550;7.208;2023-06-01T07:53:40;17.40;55.03
70830;SHT30;58451;51.550;7.208;2023-06-01T07:55:11;17.46;55.22
70830;SHT30;58451;51.550;7.208;2023-06-01T07:56:43;17.43;54.70
70830;SHT30;58451;51.550;7.208;2023-06-01T07:58:15;17.36;54.57
70830;SHT30;58451;51.550;7.208;2023-06-01T07:59:47;17.24;54.70
70830;SHT30;58451;51.550;7.208;2023-06-01T08:01:19;17.30;55.25
70830;SHT30;58451;51.550;7.208;2023-06-01T08:02:51;17.42;54.92
70830;SHT30;58451;51.550;7.208;2023-06-01T08:04:23;17.42;55.33
70830;SHT30;58451;51.550;7.208;2023-06-01T08:05:55;17.48;55.43
70830;SHT30;58451;51.550;7.208;2023-06-01T08:07:31;17.52;54.80
70830;SHT30;58451;51.550;7.208;2023-06-01T08:09:03;17.58;55.08
70830;SHT30;58451;51.550;7.208;2023-06-01T08:10:35;17.65;54.43
70830;SHT30;58451;51.550;7.208;2023-06-01T08:12:07;17.65;54.30
70830;SHT30;58451;51.550;7.208;2023-06-01T08:13:39;17.53;53.85
70830;SHT30;58451;51.550;7.208;2023-06-01T08:15:12;17.42;54.10
70830;SHT30;58451;51.550;7.208;2023-06-01T08:16:44;17.38;54.20
70830;SHT30;58451;51.550;7.208;2023-06-01T08:18:16;17.45;54.63
70830;SHT30;58451;51.550;7.208;2023-06-01T08:19:51;17.58;54.37
70830;SHT30;58451;51.550;7.208;2023-06-01T08:21:24;17.71;54.37
70830;SHT30;58451;51.550;7.208;2023-06-01T08:22:57;17.73;54.32
70830;SHT30;58451;51.550;7.208;2023-06-01T08:24:29;17.80;53.98
70830;SHT30;58451;51.550;7.208;2023-06-01T08:26:03;17.73;53.58
70830;SHT30;58451;51.550;7.208;2023-06-01T08:27:36;17.70;53.70
70830;SHT30;58451;51.550;7.208;2023-06-01T08:29:07;17.61;53.85
70830;SHT30;58451;51.550;7.208;2023-06-01T08:30:39;17.54;54.32
70830;SHT30;58451;51.550;7.208;2023-06-01T08:32:12;17.53;54.12
70830;SHT30;58451;51.550;7.208;2023-06-01T08:33:44;17.40;53.70
70830;SHT30;58451;51.550;7.208;2023-06-01T08:35:17;17.09;54.33
70830;SHT30;58451;51.550;7.208;2023-06-01T08:36:50;16.92;54.77
70830;SHT30;58451;51.550;7.208;2023-06-01T08:38:25;16.81;55.10
70830;SHT30;58451;51.550;7.208;2023-06-01T08:40:03;16.77;55.28
70830;SHT30;58451;51.550;7.208;2023-06-01T08:41:44;16.80;55.45
70830;SHT30;58451;51.550;7.208;2023-06-01T08:43:30;16.76;55.92
70830;SHT30;58451;51.550;7.208;2023-06-01T08:45:05;16.84;55.82
70830;SHT30;58451;51.550;7.208;2023-06-01T08:46:37;16.90;55.17
70830;SHT30;58451;51.550;7.208;2023-06-01T08:48:14;16.87;55.05
70830;SHT30;58451;51.550;7.208;2023-06-01T08:49:51;16.81;55.25
70830;SHT30;58451;51.550;7.208;2023-06-01T08:51:24;16.82;55.40
70830;SHT30;58451;51.550;7.208;2023-06-01T08:52:57;16.83;55.33
70830;SHT30;58451;51.550;7.208;2023-06-01T08:54:31;16.83;54.73
70830;SHT30;58451;51.550;7.208;2023-06-01T08:56:04;16.81;54.80
70830;SHT30;58451;51.550;7.208;2023-06-01T08:57:37;16.83;55.05
70830;SHT30;58451;51.550;7.208;2023-06-01T08:59:13;16.84;55.32
70830;SHT30;58451;51.550;7.208;2023-06-01T09:00:51;16.82;55.45
70830;SHT30;58451;51.550;7.208;2023-06-01T09:02:25;16.83;55.57
70830;SHT30;58451;51.550;7.208;2023-06-01T09:03:59;16.78;55.62
70830;SHT30;58451;51.550;7.208;2023-06-01T09:05:31;16.76;55.58
70830;SHT30;58451;51.550;7.208;2023-06-01T09:07:03;16.80;55.72
70830;SHT30;58451;51.550;7.208;2023-06-01T09:08:36;16.91;55.80
70830;SHT30;58451;51.550;7.208;2023-06-01T09:10:10;17.03;55.68
70830;SHT30;58451;51.550;7.208;2023-06-01T09:11:43;17.15;55.47
70830;SHT30;58451;51.550;7.208;2023-06-01T09:13:32;17.26;55.42
70830;SHT30;58451;51.550;7.208;2023-06-01T09:16:43;17.35;54.75
70830;SHT30;58451;51.550;7.208;2023-06-01T09:18:15;17.36;54.67
70830;SHT30;58451;51.550;7.208;2023-06-01T09:19:47;17.40;54.50
70830;SHT30;58451;51.550;7.208;2023-06-01T09:21:19;17.50;54.48
70830;SHT30;58451;51.550;7.208;2023-06-01T09:22:52;17.52;53.87
70830;SHT30;58451;51.550;7.208;2023-06-01T09:24:25;17.43;53.67
70830;SHT30;58451;51.550;7.208;2023-06-01T09:29:20;17.27;53.95
70830;SHT30;58451;51.550;7.208;2023-06-01T09:30:52;17.23;54.12
70830;SHT30;58451;51.550;7.208;2023-06-01T09:32:24;17.29;54.47
70830;SHT30;58451;51.550;7.208;2023-06-01T09:34:00;17.38;54.37
70830;SHT30;58451;51.550;7.208;2023-06-01T09:37:18;17.48;53.88
70830;SHT30;58451;51.550;7.208;2023-06-01T09:38:50;17.44;54.37
70830;SHT30;58451;51.550;7.208;2023-06-01T09:40:33;17.51;54.38
70830;SHT30;58451;51.550;7.208;2023-06-01T09:42:06;17.44;53.63
70830;SHT30;58451;51.550;7.208;2023-06-01T09:43:38;17.50;54.12
70830;SHT30;58451;51.550;7.208;2023-06-01T09:45:23;17.58;54.05
70830;SHT30;58451;51.550;7.208;2023-06-01T09:46:57;17.66;54.20
70830;SHT30;58451;51.550;7.208;2023-06-01T09:48:44;17.79;54.08
70830;SHT30;58451;51.550;7.208;2023-06-01T09:50:32;17.83;53.73
70830;SHT30;58451;51.550;7.208;2023-06-01T09:52:13;17.86;53.42
70830;SHT30;58451;51.550;7.208;2023-06-01T09:53:48;17.86;53.52
70830;SHT30;58451;51.550;7.208;2023-06-01T09:55:20;17.90;53.65
70830;SHT30;58451;51.550;7.208;2023-06-01T09:56:53;18.00;53.72
70830;SHT30;58451;51.550;7.208;2023-06-01T09:58:40;18.11;53.68
70830;SHT30;58451;51.550;7.208;2023-06-01T10:00:20;18.19;53.23
70830;SHT30;58451;51.550;7.208;2023-06-01T10:01:56;18.21;53.02
70830;SHT30;58451;51.550;7.208;2023-06-01T10:03:30;18.17;53.13
70830;SHT30;58451;51.550;7.208;2023-06-01T10:05:02;18.21;53.17
70830;SHT30;58451;51.550;7.208;2023-06-01T10:06:35;18.27;53.20
70830;SHT30;58451;51.550;7.208;2023-06-01T10:08:12;18.32;52.95
70830;SHT30;58451;51.550;7.208;2023-06-01T10:09:50;18.34;52.92